Time;durP1;ratioP1;P1;durP2;ratioP2;P2;SDS_P1;SDS_P2;PMS_P1;PMS_P2;Temp;Humidity;BMP_temperature;BMP_pressure;BME280_temperature;BME280_humidity;BME280_pressure;Samples;Min_cycle;Max_cycle;Signal;HPM_P1;HPM_P2
2021/12/04 00:02:16;;;;;;;0.90;0.68;;;;;;;15.18;42.56;96417.81;5033266;28;20021;-30
2021/12/04 00:04:45;;;;;;;2.03;0.60;;;;;;;15.07;42.39;96423.00;5033160;28;20043;-30
2021/12/04 00:07:11;;;;;;;2.85;1.45;;;;;;;15.14;42.62;96424.66;5032779;28;20017;-30
2021/12/04 00:09:37;;;;;;;3.17;1.25;;;;;;;15.16;42.25;96417.53;5033192;28;20036;-30
2021/12/04 00:12:05;;;;;;;1.60;0.77;;;;;;;15.17;42.02;96418.28;5033544;28;20029;-30
2021/12/04 00:14:32;;;;;;;2.03;0.73;;;;;;;15.07;42.56;96417.53;5032912;28;20364;-30
2021/12/04 00:16:59;;;;;;;2.50;0.80;;;;;;;15.04;41.92;96415.72;5033433;28;20379;-30
2021/12/04 00:19:25;;;;;;;1.75;0.80;;;;;;;15.08;42.15;96402.66;5033140;28;20033;-30
2021/12/04 00:21:51;;;;;;;1.33;0.77;;;;;;;15.06;42.08;96403.13;5033216;28;20029;-30
2021/12/04 00:24:17;;;;;;;1.17;0.57;;;;;;;15.07;42.40;96406.59;5033097;28;20040;-30
2021/12/04 00:26:44;;;;;;;4.32;0.70;;;;;;;15.08;42.49;96408.84;5033654;28;20021;-30
2021/12/04 00:29:11;;;;;;;2.13;0.80;;;;;;;15.09;42.04;96410.38;5033049;28;20108;-30
2021/12/04 00:31:37;;;;;;;1.55;0.60;;;;;;;15.09;41.88;96409.63;5032927;28;20498;-30
2021/12/04 00:34:03;;;;;;;1.35;0.60;;;;;;;15.07;41.46;96410.09;5032921;28;20034;-30
2021/12/04 00:36:54;;;;;;;1.95;0.70;;;;;;;14.98;42.11;96409.31;5033005;28;20032;-30
2021/12/04 00:50:16;;;;;;;2.67;0.70;;;;;;;15.01;42.19;96408.41;5032857;28;20056;-30
2021/12/04 00:52:42;;;;;;;1.88;0.70;;;;;;;14.99;42.17;96405.38;5032921;28;20025;-30
2021/12/04 00:55:07;;;;;;;1.88;0.68;;;;;;;14.98;41.92;96404.63;5032837;28;20403;-30
2021/12/04 00:57:33;;;;;;;2.10;0.70;;;;;;;14.96;41.95;96407.03;5032720;28;20042;-30
2021/12/04 00:59:59;;;;;;;2.33;0.80;;;;;;;14.96;41.84;96404.31;5032691;28;20383;-30
2021/12/04 01:02:25;;;;;;;1.48;0.70;;;;;;;14.99;41.67;96408.13;5032891;28;20026;-30
2021/12/04 01:04:51;;;;;;;1.13;0.70;;;;;;;14.98;41.82;96426.47;5032629;28;20399;-30
2021/12/04 01:07:17;;;;;;;1.83;0.90;;;;;;;14.95;41.70;96426.63;5032855;28;20032;-30
2021/12/04 01:09:43;;;;;;;2.80;0.73;;;;;;;14.94;41.62;96428.59;5032678;28;20102;-30
2021/12/04 01:12:09;;;;;;;1.35;0.90;;;;;;;14.95;41.50;96429.38;5032986;28;20025;-30
2021/12/04 01:14:36;;;;;;;3.22;0.77;;;;;;;14.85;41.69;96434.03;5032465;28;20030;-30
2021/12/04 01:17:01;;;;;;;1.63;0.70;;;;;;;14.82;41.77;96434.22;5032693;28;20043;-30
2021/12/04 01:19:27;;;;;;;1.20;0.80;;;;;;;14.90;41.59;96438.91;5034910;28;20527;-30
2021/12/04 01:21:54;;;;;;;1.45;0.80;;;;;;;14.80;42.02;96422.97;5036178;28;20468;-30
2021/12/04 01:24:20;;;;;;;1.63;1.10;;;;;;;14.85;41.71;96431.31;5035991;28;20025;-30
2021/12/04 01:26:47;;;;;;;2.50;0.95;;;;;;;14.83;41.82;96430.28;5036034;28;20025;-30
2021/12/04 01:29:14;;;;;;;2.00;0.80;;;;;;;14.92;41.72;96427.53;5036067;28;20043;-30
2021/12/04 01:31:40;;;;;;;1.40;1.00;;;;;;;14.92;41.47;96419.34;5036087;28;20033;-30
2021/12/04 01:34:05;;;;;;;1.60;0.68;;;;;;;14.88;41.57;96418.72;5036332;28;20025;-30
2021/12/04 01:36:31;;;;;;;2.20;0.80;;;;;;;14.86;41.42;96429.34;5035928;28;20037;-30
2021/12/04 01:38:56;;;;;;;2.03;0.90;;;;;;;14.90;41.45;96429.97;5035699;28;20029;-30
2021/12/04 01:41:22;;;;;;;2.60;1.05;;;;;;;14.91;41.37;96431.47;5035908;28;20136;-30
2021/12/04 01:43:47;;;;;;;1.38;0.70;;;;;;;14.87;41.49;96419.94;5035833;28;20388;-30
2021/12/04 01:46:13;;;;;;;1.85;0.90;;;;;;;14.90;41.46;96432.69;5035640;28;20026;-30
2021/12/04 01:48:38;;;;;;;2.53;1.00;;;;;;;14.91;41.53;96431.47;5035688;28;20033;-30
2021/12/04 01:51:04;;;;;;;1.80;1.00;;;;;;;14.84;41.28;96432.53;5035527;28;20486;-30
2021/12/04 01:53:30;;;;;;;1.83;0.80;;;;;;;14.84;41.44;96423.56;5035404;28;20026;-30
2021/12/04 01:55:57;;;;;;;1.25;0.60;;;;;;;14.78;41.59;96428.88;5035836;28;20029;-30
2021/12/04 01:58:25;;;;;;;1.85;0.80;;;;;;;14.74;41.24;96429.03;5035268;28;20080;-30
2021/12/04 02:00:51;;;;;;;2.63;0.88;;;;;;;14.76;41.74;96442.22;5035542;28;20017;-30
2021/12/04 02:03:18;;;;;;;2.40;1.27;;;;;;;14.85;41.11;96441.47;5035453;28;20052;-30
2021/12/04 02:05:44;;;;;;;1.42;0.80;;;;;;;14.75;41.50;96443.44;5035351;28;20033;-30
2021/12/04 02:08:12;;;;;;;1.70;0.85;;;;;;;14.77;41.23;96440.25;5035251;28;20022;-30
2021/12/04 02:10:38;;;;;;;1.40;0.98;;;;;;;14.79;41.25;96430.41;5035562;28;20044;-30
2021/12/04 02:13:04;;;;;;;3.92;1.20;;;;;;;14.80;41.47;96431.19;5035120;28;20033;-30
2021/12/04 02:15:30;;;;;;;2.15;1.00;;;;;;;14.78;41.72;96426.16;5035286;28;20068;-30
2021/12/04 02:17:56;;;;;;;2.67;1.27;;;;;;;14.83;41.17;96414.66;5034967;28;20049;-30
2021/12/04 02:20:24;;;;;;;1.30;0.88;;;;;;;14.81;41.24;96411.63;5035122;28;20112;-30
2021/12/04 02:22:50;;;;;;;3.25;1.00;;;;;;;14.69;41.47;96410.53;5035001;28;20029;-30
2021/12/04 02:25:16;;;;;;;1.65;1.10;;;;;;;14.68;41.51;96409.03;5035319;28;20028;-30
2021/12/04 02:27:42;;;;;;;1.52;0.98;;;;;;;14.77;41.04;96397.34;5034841;28;20021;-30
2021/12/04 02:30:11;;;;;;;1.17;0.80;;;;;;;14.77;41.53;96400.06;5034653;28;20108;-30
2021/12/04 02:32:37;;;;;;;1.65;0.77;;;;;;;14.69;41.74;96394.16;5034820;28;20056;-30
2021/12/04 02:35:04;;;;;;;2.55;1.05;;;;;;;14.67;41.55;96395.81;5034727;28;20478;-30
2021/12/04 02:37:32;;;;;;;1.48;1.10;;;;;;;14.76;41.37;96397.78;5034839;28;20029;-30
2021/12/04 02:40:00;;;;;;;2.70;1.00;;;;;;;14.73;40.99;96407.66;5034739;28;20033;-30
2021/12/04 02:42:30;;;;;;;1.92;1.00;;;;;;;14.71;41.63;96399.91;5034576;28;20037;-30
2021/12/04 02:44:58;;;;;;;1.83;0.90;;;;;;;14.76;41.18;96400.53;5033822;28;20371;-30
2021/12/04 02:47:24;;;;;;;1.15;0.80;;;;;;;14.72;41.25;96403.41;5034672;28;20049;-30
2021/12/04 02:49:50;;;;;;;1.38;0.77;;;;;;;14.76;41.00;96406.75;5034425;28;20100;-30
2021/12/04 02:52:17;;;;;;;2.00;0.70;;;;;;;14.77;40.79;96410.22;5034446;28;20152;-30
2021/12/04 02:54:42;;;;;;;1.30;0.98;;;;;;;14.69;41.35;96407.06;5034201;28;20029;-30
2021/12/04 02:57:13;;;;;;;1.17;0.80;;;;;;;14.70;41.19;96401.16;5034322;28;20017;-30
2021/12/04 02:59:40;;;;;;;2.03;0.73;;;;;;;14.77;40.94;96397.34;5034416;28;20029;-30
2021/12/04 03:02:07;;;;;;;2.55;0.80;;;;;;;14.73;40.97;96392.03;5034211;28;20022;-30
2021/12/04 03:04:32;;;;;;;2.03;0.90;;;;;;;14.71;41.25;96383.53;5034269;28;20119;-30
2021/12/04 03:06:59;;;;;;;1.27;1.02;;;;;;;14.68;41.09;96379.00;5034087;28;20021;-30
2021/12/04 03:09:24;;;;;;;1.13;0.70;;;;;;;14.72;41.04;96376.84;5034003;28;20029;-30
2021/12/04 03:11:50;;;;;;;1.70;0.93;;;;;;;14.74;41.14;96365.47;5034402;28;20027;-30
2021/12/04 03:14:17;;;;;;;2.17;0.85;;;;;;;14.73;40.66;96364.72;5033970;28;20025;-30
2021/12/04 03:16:43;;;;;;;1.17;0.70;;;;;;;14.59;41.48;96364.56;5033986;28;20048;-30
2021/12/04 03:19:09;;;;;;;1.67;0.80;;;;;;;14.64;41.32;96363.97;5033803;28;20395;-30
2021/12/04 03:21:36;;;;;;;2.63;0.75;;;;;;;14.70;41.02;96364.91;5033859;28;20021;-30
2021/12/04 03:24:05;;;;;;;1.75;0.70;;;;;;;14.56;41.48;96368.97;5033857;28;20143;-30
2021/12/04 03:26:32;;;;;;;1.38;0.70;;;;;;;14.73;40.99;96366.69;5033870;28;20499;-30
2021/12/04 03:29:01;;;;;;;1.52;0.90;;;;;;;14.65;40.94;96368.97;5033731;28;20033;-30
2021/12/04 03:42:13;;;;;;;1.77;0.80;;;;;;;14.71;40.63;96385.53;5033243;28;20079;-30
2021/12/04 03:44:39;;;;;;;1.45;0.75;;;;;;;14.60;41.15;96391.41;5033411;28;20025;-30
2021/12/04 03:47:05;;;;;;;2.53;0.93;;;;;;;14.63;40.94;96390.50;5033559;28;20044;-30
2021/12/04 03:49:31;;;;;;;1.52;0.90;;;;;;;14.61;41.08;96384.75;5033485;28;20109;-30
2021/12/04 03:51:57;;;;;;;1.80;0.80;;;;;;;14.60;41.05;96383.22;5033328;28;20075;-30
2021/12/04 03:54:22;;;;;;;1.48;0.80;;;;;;;14.63;40.85;96368.66;5033427;28;20037;-30
2021/12/04 03:56:50;;;;;;;3.50;0.93;;;;;;;14.65;40.54;96363.53;5033380;28;20025;-30
2021/12/04 03:59:15;;;;;;;1.60;0.80;;;;;;;14.63;41.27;96363.22;5033564;28;20056;-30
2021/12/04 04:01:41;;;;;;;1.27;0.68;;;;;;;14.64;40.72;96370.19;5033318;28;20464;-30
2021/12/04 04:04:06;;;;;;;0.90;0.68;;;;;;;14.62;40.86;96372.59;5033573;28;20021;-30
2021/12/04 04:06:33;;;;;;;2.13;1.05;;;;;;;14.70;40.69;96365.66;5033186;28;20025;-30
2021/12/04 04:08:58;;;;;;;3.17;0.80;;;;;;;14.59;40.75;96375.47;5033249;28;20053;-30
2021/12/04 04:11:23;;;;;;;1.25;0.80;;;;;;;14.61;40.94;96370.34;5033071;28;20057;-30
2021/12/04 04:13:49;;;;;;;1.10;0.60;;;;;;;14.64;40.68;96377.63;5033156;28;20029;-30
2021/12/04 04:16:14;;;;;;;2.63;1.15;;;;;;;14.64;40.50;96385.81;5033017;28;20029;-30
2021/12/04 04:18:40;;;;;;;1.95;1.02;;;;;;;14.69;40.43;96396.13;5033183;28;20025;-30
2021/12/04 04:21:05;;;;;;;1.25;0.70;;;;;;;14.67;40.40;96398.56;5033341;28;20025;-30
2021/12/04 04:23:31;;;;;;;2.58;0.80;;;;;;;14.72;40.73;96409.63;5033111;28;20068;-30
2021/12/04 04:25:56;;;;;;;0.80;0.70;;;;;;;14.70;40.32;96405.84;5033205;28;20036;-30
2021/12/04 04:28:22;;;;;;;2.67;1.10;;;;;;;14.70;40.31;96406.59;5033128;28;20029;-30
2021/12/04 04:30:47;;;;;;;0.88;0.70;;;;;;;14.72;40.67;96412.34;5033216;28;20391;-30
2021/12/04 04:33:14;;;;;;;2.80;0.88;;;;;;;14.65;40.33;96420.84;5032863;28;20446;-30
2021/12/04 04:35:43;;;;;;;1.67;0.70;;;;;;;14.62;40.64;96413.56;5033013;28;20029;-30
2021/12/04 04:38:39;;;;;;;2.42;0.80;;;;;;;14.68;40.61;96409.03;5033041;28;20025;-30
2021/12/04 05:16:01;;;;;;;1.77;0.80;;;;;;;14.60;39.97;96391.41;5036014;28;20399;-30
2021/12/04 05:21:03;;;;;;;1.20;0.90;;;;;;;14.53;39.94;96402.63;5036169;28;20025;-30
2021/12/04 05:23:30;;;;;;;1.88;0.80;;;;;;;14.63;40.16;96400.66;5035915;28;20060;-30
2021/12/04 05:25:56;;;;;;;1.50;0.90;;;;;;;14.52;40.23;96406.56;5035021;28;20029;-30
2021/12/04 05:28:21;;;;;;;2.65;0.85;;;;;;;14.54;40.45;96404.16;5034917;28;20491;-30
2021/12/04 05:30:49;;;;;;;2.42;0.80;;;;;;;14.54;40.10;96403.38;5035934;28;20087;-30
2021/12/04 05:33:15;;;;;;;1.58;0.88;;;;;;;14.53;39.90;96397.16;5036092;28;20021;-30
2021/12/04 05:35:42;;;;;;;1.45;0.65;;;;;;;14.61;39.93;96397.63;5035799;28;20109;-30
2021/12/04 05:38:07;;;;;;;1.30;0.80;;;;;;;14.58;39.96;96388.41;5035807;28;20021;-30
2021/12/04 05:40:33;;;;;;;1.75;0.77;;;;;;;14.64;39.86;96396.72;5036128;28;20029;-30
2021/12/04 05:43:02;;;;;;;2.05;0.95;;;;;;;14.60;40.14;96391.41;5035718;28;20048;-30
2021/12/04 05:45:31;;;;;;;0.93;0.70;;;;;;;14.55;39.81;96388.53;5035721;28;20022;-30
2021/12/04 05:55:54;;;;;;;4.43;2.05;;;;;;;14.56;39.92;96406.44;5035785;28;20029;-30
2021/12/04 05:58:31;;;;;;;5.15;1.85;;;;;;;14.54;39.73;96408.84;5035219;28;20054;-30
2021/12/04 06:01:00;;;;;;;2.85;1.65;;;;;;;14.62;39.41;96415.53;5035369;28;20423;-30
2021/12/04 06:03:26;;;;;;;3.03;1.30;;;;;;;14.60;39.76;96423.41;5035403;28;20438;-30
2021/12/04 06:05:51;;;;;;;3.60;1.55;;;;;;;14.54;39.73;96420.53;5035397;28;20462;-30
2021/12/04 06:08:17;;;;;;;1.98;1.45;;;;;;;14.57;39.47;96430.53;5035237;28;20025;-30
2021/12/04 06:10:43;;;;;;;3.67;1.55;;;;;;;14.61;39.40;96428.41;5035284;28;20045;-30
2021/12/04 06:13:09;;;;;;;4.03;1.45;;;;;;;14.56;39.50;96428.25;5034958;28;20021;-30
2021/12/04 06:15:35;;;;;;;1.88;1.40;;;;;;;14.62;39.13;96435.38;5035192;28;20041;-30
2021/12/04 06:18:00;;;;;;;2.78;1.48;;;;;;;14.54;38.99;96433.41;5035046;28;20028;-30
2021/12/04 06:23:11;;;;;;;3.58;1.60;;;;;;;14.53;39.55;96451.75;5035255;28;20152;-30
2021/12/04 06:25:37;;;;;;;2.63;1.77;;;;;;;14.53;39.67;96459.94;5035088;28;20115;-30
2021/12/04 06:28:03;;;;;;;2.40;1.52;;;;;;;14.53;39.31;96462.66;5034805;28;20021;-30
2021/12/04 06:30:33;;;;;;;4.18;1.95;;;;;;;14.54;39.75;96464.19;5035034;28;20044;-30
2021/12/04 06:32:58;;;;;;;1.95;1.50;;;;;;;14.53;39.06;96461.91;5034638;28;20075;-30
2021/12/04 06:35:24;;;;;;;2.40;1.50;;;;;;;14.57;39.51;96462.53;5035324;28;20108;-30
2021/12/04 06:37:50;;;;;;;2.45;1.80;;;;;;;14.55;39.27;96462.97;5034574;28;20026;-30
2021/12/04 06:40:19;;;;;;;2.92;1.83;;;;;;;14.61;39.38;96472.06;5034561;28;20028;-30
2021/12/04 06:42:45;;;;;;;3.58;1.70;;;;;;;14.59;39.38;96454.63;5034561;28;20475;-30
2021/12/04 06:45:12;;;;;;;2.38;1.50;;;;;;;14.54;39.20;96458.72;5034532;28;20025;-30
2021/12/04 06:47:45;;;;;;;3.15;1.80;;;;;;;14.49;39.29;96464.00;5034407;28;20037;-30
2021/12/04 06:50:17;;;;;;;4.63;1.50;;;;;;;14.52;39.69;96476.75;5027335;28;20053;-30
2021/12/04 06:52:45;;;;;;;2.40;1.60;;;;;;;14.45;39.46;96479.78;5012680;28;20033;-30
2021/12/04 06:55:14;;;;;;;3.15;1.50;;;;;;;14.54;39.39;96469.66;5023344;28;20029;-30
2021/12/04 06:57:40;;;;;;;2.33;1.23;;;;;;;14.56;39.37;96469.97;5032229;28;20057;-30
2021/12/04 07:00:10;;;;;;;1.88;1.40;;;;;;;14.55;39.36;96476.63;5032373;28;20124;-30
2021/12/04 07:02:35;;;;;;;2.90;1.60;;;;;;;14.51;39.34;96488.88;5032559;28;20467;-30
2021/12/04 07:05:01;;;;;;;2.25;1.55;;;;;;;14.49;39.56;96486.59;5032362;28;20053;-30
2021/12/04 07:07:26;;;;;;;4.53;2.20;;;;;;;14.55;39.44;96482.09;5019703;28;20468;-30
2021/12/04 07:09:52;;;;;;;3.42;2.10;;;;;;;14.47;39.13;96478.09;5012303;28;20084;-30
2021/12/04 07:12:17;;;;;;;7.10;3.75;;;;;;;14.57;39.33;96474.22;5012266;28;20037;-30
2021/12/04 07:14:43;;;;;;;10.77;5.15;;;;;;;14.54;38.92;96463.44;5012442;28;20030;-30
2021/12/04 07:17:09;;;;;;;9.15;4.85;;;;;;;14.60;38.81;96459.63;5010899;28;20033;-30
2021/12/04 07:19:35;;;;;;;15.13;8.35;;;;;;;14.61;38.85;96457.66;5012404;28;20024;-30
2021/12/04 07:22:02;;;;;;;14.18;8.13;;;;;;;14.54;39.08;96458.72;5012470;28;20424;-30
2021/12/04 07:24:29;;;;;;;18.83;10.38;;;;;;;14.60;39.06;96462.38;5012110;28;20435;-30
2021/12/04 07:26:55;;;;;;;18.75;11.10;;;;;;;14.58;39.13;96462.09;5012436;28;20026;-30
2021/12/04 07:29:21;;;;;;;15.55;9.25;;;;;;;14.53;39.18;96459.94;5012122;28;20079;-30
2021/12/04 07:31:46;;;;;;;17.48;9.07;;;;;;;14.47;39.24;96467.19;5012367;28;20440;-30
2021/12/04 07:34:12;;;;;;;16.30;8.57;;;;;;;14.53;39.42;96470.84;5012266;28;20129;-30
2021/12/04 07:36:37;;;;;;;14.20;8.43;;;;;;;14.57;38.94;96468.75;5011742;28;20034;-30
2021/12/04 07:39:04;;;;;;;13.68;7.63;;;;;;;14.56;38.99;96458.28;5012158;28;20030;-30
2021/12/04 07:41:30;;;;;;;12.45;7.38;;;;;;;14.56;39.20;96461.78;5010539;28;20225;-30
2021/12/04 07:43:56;;;;;;;11.70;7.03;;;;;;;14.60;39.07;96456.91;5012318;28;20441;-30
2021/12/04 07:46:22;;;;;;;11.25;6.90;;;;;;;14.61;39.12;96452.97;5012116;28;20211;-30
2021/12/04 07:48:47;;;;;;;10.45;5.80;;;;;;;14.57;39.38;96452.38;5011772;28;20038;-30
2021/12/04 07:51:17;;;;;;;11.73;6.50;;;;;;;14.63;39.10;96447.81;5011935;28;20116;-30
2021/12/04 07:53:43;;;;;;;9.95;6.50;;;;;;;14.52;39.31;96457.66;5011905;28;20068;-30
2021/12/04 07:56:09;;;;;;;8.85;5.55;;;;;;;14.53;39.55;96467.38;5011908;28;20503;-30
2021/12/04 07:58:35;;;;;;;8.85;5.47;;;;;;;14.59;39.25;96460.09;5011781;28;20133;-30
2021/12/04 08:01:00;;;;;;;8.60;5.00;;;;;;;14.56;39.32;96453.59;5011425;28;20113;-30
2021/12/04 08:03:25;;;;;;;8.38;5.30;;;;;;;14.57;39.25;96457.84;5011764;28;20116;-30
2021/12/04 08:05:51;;;;;;;8.02;4.78;;;;;;;14.54;39.48;96464.19;5011623;28;20075;-30
2021/12/04 08:08:17;;;;;;;10.13;5.68;;;;;;;14.58;39.24;96464.06;5010333;28;20471;-30
2021/12/04 08:10:42;;;;;;;9.13;4.57;;;;;;;14.51;39.68;96464.31;5011811;28;20021;-30
2021/12/04 08:13:08;;;;;;;7.70;4.45;;;;;;;14.59;39.16;96471.75;5011529;28;20022;-30
2021/12/04 08:15:36;;;;;;;6.68;4.05;;;;;;;14.62;39.29;96483.75;5011858;28;20034;-30
2021/12/04 08:18:03;;;;;;;6.55;3.83;;;;;;;14.56;39.34;96472.69;5010051;28;20471;-30
2021/12/04 08:20:28;;;;;;;6.90;3.67;;;;;;;14.52;39.29;96476.75;5011634;28;20057;-30
2021/12/04 08:22:54;;;;;;;5.53;3.40;;;;;;;14.57;39.07;96470.72;5011553;28;20068;-30
2021/12/04 08:25:20;;;;;;;6.20;3.38;;;;;;;14.52;39.20;96474.78;5011493;28;20045;-30
2021/12/04 08:27:48;;;;;;;6.60;3.47;;;;;;;14.54;39.34;96491.47;5013066;28;20076;-30
2021/12/04 08:30:18;;;;;;;5.10;3.00;;;;;;;14.51;39.49;96484.19;5015515;28;20097;-30
2021/12/04 08:32:44;;;;;;;4.57;2.90;;;;;;;14.49;39.51;96485.84;5015230;28;20120;-30
2021/12/04 08:35:13;;;;;;;5.95;2.65;;;;;;;14.51;39.68;96488.88;5015667;28;20439;-30
2021/12/04 08:37:39;;;;;;;3.95;2.40;;;;;;;14.47;39.35;96486.28;5015135;28;20022;-30
2021/12/04 08:40:10;;;;;;;3.45;2.13;;;;;;;14.45;39.41;96496.91;5015287;28;20029;-30
2021/12/04 08:42:36;;;;;;;3.63;2.40;;;;;;;14.50;39.64;96504.50;5017075;28;20396;-30
2021/12/04 08:45:02;;;;;;;3.58;2.20;;;;;;;14.57;39.56;96506.97;5033207;28;20026;-30
2021/12/04 08:47:28;;;;;;;4.10;2.00;;;;;;;14.55;39.68;96503.91;5034979;28;20772;-30
2021/12/04 08:49:53;;;;;;;3.85;1.73;;;;;;;14.52;39.81;96502.06;5034195;28;20056;-30
2021/12/04 08:52:18;;;;;;;3.30;1.98;;;;;;;14.59;39.63;96512.69;5034688;28;20029;-30
2021/12/04 08:54:44;;;;;;;4.97;1.80;;;;;;;14.63;39.49;96510.59;5034532;28;20028;-30
2021/12/04 08:57:10;;;;;;;3.28;1.83;;;;;;;14.60;39.72;96505.28;5034510;28;20049;-30
2021/12/04 08:59:36;;;;;;;4.30;2.00;;;;;;;14.55;39.92;96503.91;5034279;28;20025;-30
2021/12/04 09:02:03;;;;;;;2.28;1.50;;;;;;;14.59;39.97;96498.28;5034402;28;20035;-30
2021/12/04 09:04:32;;;;;;;2.85;1.77;;;;;;;14.53;39.66;96500.88;5034624;28;20022;-30
2021/12/04 09:07:00;;;;;;;3.47;1.70;;;;;;;14.39;40.25;96504.13;5032637;28;20065;-30
2021/12/04 09:09:28;;;;;;;3.15;1.83;;;;;;;14.47;39.53;96512.81;5034490;28;20033;-30
2021/12/04 09:12:00;;;;;;;4.30;2.20;;;;;;;14.50;39.97;96514.66;5033652;28;20037;-30
2021/12/04 09:14:29;;;;;;;3.20;1.80;;;;;;;14.56;39.76;96510.13;5034393;28;20025;-30
2021/12/04 09:16:57;;;;;;;3.47;1.90;;;;;;;14.48;39.80;96515.09;5034271;28;20034;-30
2021/12/04 09:19:23;;;;;;;3.08;1.95;;;;;;;14.55;40.12;96517.56;5032802;28;20025;-30
2021/12/04 09:21:50;;;;;;;3.45;1.90;;;;;;;14.59;39.91;96514.66;5034403;28;20470;-30
2021/12/04 09:24:17;;;;;;;3.35;1.83;;;;;;;14.51;40.09;96514.19;5033954;28;20121;-30
2021/12/04 10:04:29;;;;;;;2.47;1.40;;;;;;;14.51;40.96;96454.16;5013991;28;20535;-30
2021/12/04 10:12:52;;;;;;;2.65;1.40;;;;;;;14.44;41.04;96459.91;5035257;28;20113;-30
2021/12/04 10:34:58;;;;;;;1.70;1.25;;;;;;;14.41;41.50;96421.84;5034870;28;20040;-30
2021/12/04 10:37:27;;;;;;;1.45;1.30;;;;;;;14.51;41.30;96415.19;5034576;28;20048;-30
2021/12/04 10:39:59;;;;;;;1.73;1.30;;;;;;;14.42;41.76;96412.47;5034548;28;20432;-30
2021/12/04 10:42:31;;;;;;;3.77;2.13;;;;;;;14.56;41.33;96407.19;5034853;28;20025;-30
2021/12/04 10:44:57;;;;;;;2.15;1.88;;;;;;;14.56;41.29;96411.88;5033521;28;20032;-30
2021/12/04 10:47:25;;;;;;;2.35;1.90;;;;;;;14.52;41.39;96409.28;5034059;28;20037;-30
2021/12/04 11:00:38;;;;;;;2.38;1.63;;;;;;;14.50;41.37;96406.25;5034461;28;20030;-30
2021/12/04 11:03:20;;;;;;;1.90;1.70;;;;;;;14.54;41.08;96404.16;5034500;28;20018;-30
2021/12/04 11:22:33;;;;;;;3.67;1.55;;;;;;;14.37;41.56;96367.41;5034235;28;20033;-30
2021/12/04 11:41:55;;;;;;;2.28;1.60;;;;;;;14.42;41.07;96358.66;5023533;28;20116;-30
2021/12/04 11:44:32;;;;;;;2.55;1.60;;;;;;;14.37;40.93;96353.75;5033544;28;20021;-30
2021/12/04 11:46:58;;;;;;;3.40;1.48;;;;;;;14.36;40.71;96344.06;5033523;28;20017;-30
2021/12/04 11:49:30;;;;;;;1.98;1.40;;;;;;;14.21;41.37;96335.72;5033567;28;20025;-30
2021/12/04 11:52:11;;;;;;;1.85;1.45;;;;;;;14.38;40.60;96336.94;5033681;28;20387;-30
2021/12/04 11:54:46;;;;;;;2.78;1.33;;;;;;;14.41;40.30;96316.22;5033227;28;20025;-30
2021/12/04 11:57:13;;;;;;;2.60;1.60;;;;;;;14.34;40.49;96311.75;5033222;28;20029;-30
2021/12/04 11:59:42;;;;;;;2.70;1.30;;;;;;;14.29;40.57;96306.16;5033353;28;20037;-30
2021/12/04 12:02:10;;;;;;;2.17;1.25;;;;;;;14.37;40.63;96315.56;5032882;28;20021;-30
2021/12/04 12:04:39;;;;;;;2.65;1.70;;;;;;;14.27;40.45;96308.59;5032742;28;20478;-30
2021/12/04 12:07:24;;;;;;;2.25;1.55;;;;;;;14.20;40.32;96304.19;5033232;28;20116;-30
2021/12/04 12:10:12;;;;;;;2.60;1.60;;;;;;;14.22;40.13;96290.84;5017185;28;20704;-30
2021/12/04 12:12:43;;;;;;;2.30;1.45;;;;;;;14.19;39.97;96285.56;5013590;28;20088;-30
2021/12/04 12:15:29;;;;;;;3.22;2.03;;;;;;;14.23;40.18;96280.69;5033013;28;20080;-30
2021/12/04 12:17:56;;;;;;;2.55;1.60;;;;;;;14.19;40.78;96283.59;5033063;28;20030;-30
2021/12/04 12:20:46;;;;;;;3.45;1.80;;;;;;;14.29;40.07;96276.16;5032879;28;20026;-30
2021/12/04 12:23:14;;;;;;;4.45;2.10;;;;;;;14.25;40.02;96283.72;5063689;28;20017;-30
2021/12/04 12:34:10;;;;;;;2.80;2.00;;;;;;;14.16;40.76;96284.47;5013784;28;20052;-30
2021/12/04 12:36:36;;;;;;;3.05;1.83;;;;;;;14.33;40.68;96290.41;5033145;28;20021;-30
2021/12/04 12:39:04;;;;;;;4.38;1.98;;;;;;;14.24;40.45;96290.38;5032950;28;20045;-30
2021/12/04 12:41:32;;;;;;;2.90;1.90;;;;;;;14.34;40.64;96295.41;5033065;28;20091;-30
2021/12/04 12:44:15;;;;;;;2.88;2.00;;;;;;;14.38;40.56;96303.44;5033071;28;20369;-30
2021/12/04 12:46:57;;;;;;;2.05;1.80;;;;;;;14.33;40.61;96301.31;5033354;28;20025;-30
2021/12/04 12:49:39;;;;;;;3.22;1.90;;;;;;;14.27;40.95;96287.53;5033020;28;20112;-30
2021/12/04 12:52:13;;;;;;;3.15;1.80;;;;;;;14.21;41.28;96289.34;5033134;28;20022;-30
2021/12/04 12:54:44;;;;;;;4.20;1.88;;;;;;;14.29;41.04;96278.88;5033052;28;20064;-30
2021/12/04 12:57:13;;;;;;;3.35;1.92;;;;;;;14.25;41.20;96272.81;5032960;28;20025;-30
2021/12/04 13:14:14;;;;;;;3.08;1.90;;;;;;;14.35;40.90;96252.50;5034218;28;20083;-30
2021/12/04 13:16:43;;;;;;;2.65;2.08;;;;;;;14.46;40.94;96250.13;5036447;28;20021;-30
2021/12/04 13:19:12;;;;;;;3.25;2.05;;;;;;;14.14;41.71;96235.09;5036329;28;20152;-30
2021/12/04 13:21:40;;;;;;;2.90;2.10;;;;;;;14.12;41.23;96232.06;5036317;28;20040;-30
2021/12/04 13:24:10;;;;;;;2.38;1.80;;;;;;;14.26;40.86;96247.06;5036257;28;20052;-30
2021/12/04 13:26:40;;;;;;;3.25;2.00;;;;;;;14.19;41.12;96247.38;5036027;28;21001;-30
2021/12/04 13:29:09;;;;;;;3.83;1.80;;;;;;;14.37;40.95;96241.91;5036276;28;20119;-30
2021/12/04 13:31:38;;;;;;;2.45;1.80;;;;;;;14.36;41.17;96232.19;5035952;28;20021;-30
2021/12/04 13:34:06;;;;;;;3.42;1.77;;;;;;;14.40;41.13;96235.56;5036005;28;20049;-30
2021/12/04 13:36:32;;;;;;;2.70;2.03;;;;;;;14.43;41.02;96240.13;5035897;28;20087;-30
2021/12/04 13:39:05;;;;;;;4.28;2.10;;;;;;;14.43;41.36;96234.66;5035845;28;20029;-30
2021/12/04 13:41:31;;;;;;;;;;;;;;;14.45;41.43;96236.94;5036383;28;20046;-30
2021/12/04 13:43:59;;;;;;;4.55;2.60;;;;;;;14.28;41.82;96234.47;5035935;28;19909;-30
2021/12/04 13:46:25;;;;;;;5.80;3.40;;;;;;;14.30;41.88;96239.50;5035951;28;20071;-30
2021/12/04 13:48:59;;;;;;;9.45;4.30;;;;;;;14.36;42.12;96241.13;5035741;28;20033;-30
2021/12/04 13:51:24;;;;;;;6.90;3.78;;;;;;;14.36;42.36;96240.38;5036215;28;20025;-30
2021/12/04 13:53:50;;;;;;;7.90;4.32;;;;;;;14.26;42.68;96241.59;5035624;28;20032;-30
2021/12/04 13:56:19;;;;;;;5.38;3.20;;;;;;;14.13;43.19;96236.28;5035768;28;20139;-30
2021/12/04 13:58:48;;;;;;;8.68;4.13;;;;;;;14.19;43.04;96250.09;5035435;28;20555;-30
2021/12/04 14:01:14;;;;;;;10.98;4.55;;;;;;;14.02;43.23;96253.09;5035352;28;20036;-30
2021/12/04 14:03:40;;;;;;;7.22;3.90;;;;;;;14.11;43.12;96240.69;5035524;28;20028;-30
2021/12/04 14:06:14;;;;;;;7.90;4.40;;;;;;;14.03;43.42;96241.00;5035584;28;20029;-30
2021/12/04 14:08:42;;;;;;;7.50;3.67;;;;;;;14.11;43.60;96235.22;5035712;28;20053;-30
2021/12/04 14:11:09;;;;;;;6.50;3.85;;;;;;;14.05;43.49;96231.59;5035483;28;20107;-30
2021/12/04 14:13:37;;;;;;;8.73;4.03;;;;;;;14.14;43.30;96224.19;5035549;28;20080;-30
2021/12/04 14:16:03;;;;;;;7.00;3.85;;;;;;;14.35;43.24;96233.41;5035148;28;20430;-30
2021/12/04 14:18:30;;;;;;;7.53;3.38;;;;;;;14.13;43.86;96227.34;5034940;28;20033;-30
2021/12/04 14:21:00;;;;;;;7.13;3.85;;;;;;;14.21;43.73;96228.59;5035175;28;20061;-30
2021/12/04 14:23:28;;;;;;;6.88;4.25;;;;;;;14.07;43.92;96223.72;5035196;28;20104;-30
2021/12/04 14:25:54;;;;;;;6.28;3.63;;;;;;;14.14;43.96;96237.06;5034573;28;20379;-30
2021/12/04 14:28:25;;;;;;;5.63;3.45;;;;;;;14.14;44.27;96224.19;5034847;28;20021;-30
2021/12/04 14:30:51;;;;;;;6.18;3.35;;;;;;;14.05;44.44;96231.59;5035110;28;20021;-30
2021/12/04 14:33:23;;;;;;;7.93;3.50;;;;;;;14.19;44.15;96222.81;5034951;28;20061;-30
2021/12/04 14:35:50;;;;;;;6.97;3.37;;;;;;;14.25;43.76;96216.28;5034879;28;20051;-30
2021/12/04 14:38:24;;;;;;;5.95;3.17;;;;;;;14.10;44.50;96222.81;5034939;28;20021;-30
2021/12/04 14:40:53;;;;;;;4.35;2.80;;;;;;;14.25;44.22;96223.72;5034984;28;20025;-30
2021/12/04 14:43:22;;;;;;;5.55;2.95;;;;;;;14.21;44.12;96223.13;5034758;28;20074;-30
2021/12/04 14:45:51;;;;;;;5.32;2.70;;;;;;;14.00;44.94;96216.59;5034528;28;20033;-30
2021/12/04 14:48:16;;;;;;;4.07;2.50;;;;;;;14.19;44.39;96214.63;5034615;28;20021;-30
2021/12/04 14:50:46;;;;;;;4.80;2.70;;;;;;;14.17;44.34;96209.63;5034573;28;20391;-30
2021/12/04 14:53:15;;;;;;;4.63;2.60;;;;;;;14.08;45.04;96212.38;5034476;28;20033;-30
2021/12/04 14:55:43;;;;;;;4.13;2.40;;;;;;;14.21;44.81;96204.81;5034291;28;20033;-30
2021/12/04 14:58:14;;;;;;;3.25;2.08;;;;;;;14.24;44.47;96211.28;5034143;28;20136;-30